createdAt,value
2022-11-07T00:01:23.347Z,54.86
2022-11-07T00:03:54.111Z,55.05
2022-11-07T00:06:21.234Z,54.71
2022-11-07T00:08:49.368Z,54.76
2022-11-07T00:11:16.104Z,54.97
2022-11-07T00:13:42.852Z,54.80
2022-11-07T00:16:10.764Z,54.87
2022-11-07T00:18:37.375Z,55.01
2022-11-07T00:21:09.870Z,55.04
2022-11-07T00:23:39.975Z,54.73
2022-11-07T00:26:11.957Z,54.77
2022-11-07T00:28:40.654Z,55.18
2022-11-07T00:31:08.510Z,55.01
2022-11-07T00:33:35.834Z,55.13
2022-11-07T00:36:02.564Z,55.07
2022-11-07T00:38:29.310Z,55.14
2022-11-07T00:41:00.349Z,54.90
2022-11-07T00:43:27.618Z,54.95
2022-11-07T00:45:54.273Z,55.21
2022-11-07T00:48:21.266Z,55.26
2022-11-07T00:50:48.088Z,55.05
2022-11-07T00:53:15.148Z,54.93
2022-11-07T00:55:42.098Z,54.87
2022-11-07T00:58:13.582Z,54.95
2022-11-07T01:00:41.064Z,54.76
2022-11-07T01:03:26.289Z,54.96
2022-11-07T01:06:11.827Z,55.47
2022-11-07T01:08:38.523Z,55.27
2022-11-07T01:11:06.771Z,54.89
2022-11-07T01:13:34.178Z,55.33
2022-11-07T01:16:00.898Z,55.35
2022-11-07T01:18:27.658Z,54.92
2022-11-07T01:20:54.349Z,55.04
2022-11-07T01:23:22.851Z,55.16
2022-11-07T01:25:49.557Z,55.12
2022-11-07T01:28:16.438Z,55.01
2022-11-07T01:30:44.432Z,54.96
2022-11-07T01:33:11.589Z,55.28
2022-11-07T01:35:38.602Z,55.27
2022-11-07T01:38:05.430Z,55.13
2022-11-07T01:40:33.850Z,55.49
2022-11-07T01:43:00.656Z,55.20
2022-11-07T01:45:30.917Z,55.46
2022-11-07T01:47:59.969Z,55.03
2022-11-07T01:50:27.005Z,55.16
2022-11-07T01:52:55.161Z,55.36
2022-11-07T01:55:33.749Z,55.59
2022-11-07T01:58:02.948Z,55.58
2022-11-07T02:00:30.673Z,55.54
2022-11-07T02:03:14.088Z,55.19
2022-11-07T02:05:55.298Z,55.59
2022-11-07T02:08:23.008Z,55.50
2022-11-07T02:10:49.899Z,55.22
2022-11-07T02:13:32.945Z,55.21
2022-11-07T02:16:05.189Z,55.39
2022-11-07T02:18:34.382Z,55.21
2022-11-07T02:21:06.050Z,55.58
2022-11-07T02:23:47.933Z,55.39
2022-11-07T02:26:14.782Z,55.49
2022-11-07T02:28:42.572Z,55.33
2022-11-07T02:31:09.339Z,55.35
2022-11-07T02:33:35.959Z,55.47
2022-11-07T02:36:02.723Z,55.52
2022-11-07T02:38:32.608Z,55.65
2022-11-07T02:41:08.200Z,55.41
2022-11-07T02:43:35.566Z,55.48
2022-11-07T02:46:05.198Z,55.59
2022-11-07T02:48:33.699Z,55.55
2022-11-07T02:51:00.404Z,55.24
2022-11-07T02:53:27.082Z,55.27
2022-11-07T02:55:53.719Z,55.67
2022-11-07T02:58:20.465Z,55.62
2022-11-07T03:00:47.613Z,55.63
2022-11-07T03:03:14.763Z,55.56
2022-11-07T03:05:41.742Z,55.42
2022-11-07T03:08:08.615Z,55.63
2022-11-07T03:10:35.483Z,55.60
2022-11-07T03:13:02.261Z,55.69
2022-11-07T03:15:28.914Z,55.59
2022-11-07T03:17:55.626Z,55.71
2022-11-07T03:20:22.310Z,55.48
2022-11-07T03:22:49.036Z,55.28
2022-11-07T03:25:15.674Z,55.49
2022-11-07T03:27:47.625Z,55.63
2022-11-07T03:30:14.702Z,55.61
2022-11-07T03:32:41.349Z,55.42
2022-11-07T03:35:08.599Z,55.31
2022-11-07T03:37:35.248Z,55.56
2022-11-07T03:40:02.079Z,55.63
2022-11-07T03:42:28.773Z,55.60
2022-11-07T03:44:55.501Z,55.55
2022-11-07T03:47:22.210Z,55.49
2022-11-07T03:49:48.940Z,55.58
2022-11-07T03:52:15.616Z,55.86
2022-11-07T03:54:42.371Z,55.38
2022-11-07T03:57:09.093Z,55.44
2022-11-07T03:59:35.769Z,55.38
2022-11-07T04:02:02.516Z,55.75
2022-11-07T04:04:29.326Z,55.28
2022-11-07T04:06:55.945Z,55.82
2022-11-07T04:09:22.680Z,55.48
2022-11-07T04:12:07.877Z,55.38
2022-11-07T04:14:53.430Z,55.43
2022-11-07T04:17:20.414Z,55.75
2022-11-07T04:19:48.422Z,55.37
2022-11-07T04:22:15.385Z,55.43
2022-11-07T04:24:46.267Z,55.45
2022-11-07T04:27:32.634Z,55.44
2022-11-07T04:29:59.729Z,55.31
2022-11-07T04:32:26.381Z,55.67
2022-11-07T04:34:53.091Z,55.40
2022-11-07T04:37:19.794Z,55.87
2022-11-07T04:39:46.546Z,55.88
2022-11-07T04:42:13.192Z,55.41
2022-11-07T04:44:39.912Z,55.50
2022-11-07T04:47:06.518Z,55.34
2022-11-07T04:49:33.280Z,55.48
2022-11-07T04:51:59.983Z,55.68
2022-11-07T04:54:26.719Z,55.82
2022-11-07T04:56:53.398Z,55.82
2022-11-07T04:59:20.101Z,55.73
2022-11-07T05:01:46.812Z,55.44
2022-11-07T05:04:13.970Z,55.62
2022-11-07T05:06:41.013Z,55.34
2022-11-07T05:09:09.326Z,55.77
2022-11-07T05:11:36.018Z,55.61
2022-11-07T05:14:02.719Z,55.39
2022-11-07T05:16:30.462Z,55.47
2022-11-07T05:18:57.090Z,55.27
2022-11-07T05:21:23.840Z,55.35
2022-11-07T05:23:50.490Z,55.64
2022-11-07T05:26:18.120Z,55.51
2022-11-07T05:28:44.809Z,55.42
2022-11-07T05:31:15.240Z,55.53
2022-11-07T05:33:42.277Z,55.33
2022-11-07T05:36:13.897Z,55.26
2022-11-07T05:38:46.158Z,55.75
2022-11-07T05:41:14.441Z,55.72
2022-11-07T05:43:41.300Z,55.33
2022-11-07T05:46:08.400Z,55.40
2022-11-07T05:48:35.713Z,55.22
2022-11-07T05:51:02.529Z,55.54
2022-11-07T05:53:29.608Z,55.71
2022-11-07T05:55:57.010Z,55.27
2022-11-07T05:58:23.929Z,55.62
2022-11-07T06:00:50.696Z,55.49
2022-11-07T06:03:20.811Z,55.35
2022-11-07T06:05:47.858Z,55.18
2022-11-07T06:08:14.878Z,54.77
2022-11-07T06:10:42.876Z,55.13
2022-11-07T06:13:15.311Z,55.00
2022-11-07T06:15:43.671Z,54.92
2022-11-07T06:18:16.930Z,54.98
2022-11-07T06:20:43.955Z,54.95
2022-11-07T06:23:10.839Z,55.31
2022-11-07T06:25:37.802Z,55.28
2022-11-07T06:28:06.851Z,55.29
2022-11-07T06:30:34.269Z,55.64
2022-11-07T06:33:06.534Z,55.23
2022-11-07T06:35:34.256Z,55.13
2022-11-07T06:38:04.977Z,55.13
2022-11-07T06:40:31.842Z,55.76
2022-11-07T06:43:18.008Z,55.74
2022-11-07T06:45:46.573Z,56.19
2022-11-07T06:48:13.594Z,55.87
2022-11-07T06:50:40.530Z,56.01
2022-11-07T06:53:09.419Z,55.91
2022-11-07T06:55:37.321Z,55.95
2022-11-07T06:58:04.529Z,55.85
2022-11-07T07:00:34.114Z,55.92
2022-11-07T07:03:01.096Z,56.12
2022-11-07T07:05:28.338Z,56.08
2022-11-07T07:07:55.979Z,56.12
2022-11-07T07:10:24.845Z,56.14
2022-11-07T07:12:53.033Z,56.28
2022-11-07T07:15:19.736Z,56.57
2022-11-07T07:17:46.534Z,56.49
2022-11-07T07:20:13.355Z,56.40
2022-11-07T07:22:40.589Z,56.49
2022-11-07T07:25:08.098Z,56.15
2022-11-07T07:27:34.865Z,56.45
2022-11-07T07:30:01.502Z,56.18
2022-11-07T07:32:28.249Z,56.13
2022-11-07T07:34:54.935Z,56.33
2022-11-07T07:37:21.758Z,55.96
2022-11-07T07:39:48.480Z,56.04
2022-11-07T07:42:15.290Z,56.05
2022-11-07T07:44:51.567Z,56.28
2022-11-07T07:47:19.082Z,56.05
2022-11-07T07:49:45.701Z,56.15
2022-11-07T07:52:12.454Z,56.16
2022-11-07T07:54:39.374Z,56.52
2022-11-07T07:57:06.073Z,56.43
2022-11-07T07:59:32.710Z,56.14
2022-11-07T08:01:59.559Z,56.17
2022-11-07T08:04:27.167Z,55.92
2022-11-07T08:06:55.069Z,55.55
2022-11-07T08:09:21.906Z,55.25
2022-11-07T08:11:48.778Z,55.54
2022-11-07T08:14:15.614Z,55.48
2022-11-07T08:16:42.890Z,55.33
2022-11-07T08:19:10.181Z,55.66
2022-11-07T08:21:37.208Z,55.19
2022-11-07T08:24:04.353Z,55.04
2022-11-07T08:26:31.536Z,55.00
2022-11-07T08:28:58.610Z,55.29
2022-11-07T08:31:25.488Z,55.03
2022-11-07T08:33:52.299Z,55.07
2022-11-07T08:36:19.131Z,54.70
2022-11-07T08:38:55.410Z,54.79
2022-11-07T08:41:22.787Z,54.73
2022-11-07T08:43:49.843Z,54.83
2022-11-07T08:46:16.739Z,54.55
2022-11-07T08:48:43.726Z,54.47
2022-11-07T08:51:10.484Z,53.98
2022-11-07T08:53:37.222Z,54.01
2022-11-07T08:56:05.852Z,54.09
2022-11-07T08:58:32.771Z,53.86
2022-11-07T09:01:00.018Z,53.79
2022-11-07T09:06:13.591Z,53.10
2022-11-07T09:08:41.171Z,53.27
2022-11-07T09:11:08.402Z,53.25
2022-11-07T09:13:35.349Z,52.75
2022-11-07T09:16:03.589Z,52.48
2022-11-07T09:18:30.870Z,52.68
2022-11-07T09:20:58.487Z,52.82
2022-11-07T09:23:25.642Z,51.92
2022-11-07T09:25:52.327Z,52.18
2022-11-07T09:28:19.084Z,51.71
2022-11-07T09:30:45.752Z,51.79
2022-11-07T09:33:15.862Z,51.65
2022-11-07T09:35:43.713Z,51.66
2022-11-07T09:38:10.397Z,51.70
2022-11-07T09:40:55.918Z,51.98
2022-11-07T09:43:51.470Z,51.89
2022-11-07T09:46:21.302Z,51.92
2022-11-07T09:48:51.712Z,51.85
2022-11-07T09:51:35.855Z,51.49
2022-11-07T09:54:21.842Z,51.70
2022-11-07T09:56:48.718Z,51.65
2022-11-07T09:59:26.321Z,51.48
2022-11-07T10:01:53.244Z,51.20
2022-11-07T10:04:26.272Z,51.24
2022-11-07T10:07:03.446Z,51.58
2022-11-07T10:09:49.166Z,51.60
2022-11-07T10:12:41.757Z,51.36
2022-11-07T10:15:54.017Z,51.24
2022-11-07T10:18:41.145Z,51.43
2022-11-07T10:21:37.138Z,51.15
2022-11-07T10:24:37.320Z,51.41
2022-11-07T10:27:09.415Z,51.32
2022-11-07T10:29:44.893Z,51.24
2022-11-07T10:32:20.327Z,51.00
2022-11-07T10:34:54.170Z,51.40
2022-11-07T10:37:22.002Z,51.07
2022-11-07T10:39:48.756Z,51.45
2022-11-07T10:42:20.977Z,50.92
2022-11-07T10:44:49.978Z,51.07
2022-11-07T10:47:27.862Z,51.48
2022-11-07T10:49:55.300Z,51.17
2022-11-07T10:52:22.291Z,50.86
2022-11-07T10:54:49.165Z,50.92
2022-11-07T10:57:17.666Z,50.85
2022-11-07T10:59:53.660Z,50.54
2022-11-07T11:02:31.059Z,50.99
2022-11-07T11:05:02.530Z,50.92
2022-11-07T11:07:39.669Z,50.63
2022-11-07T11:10:19.001Z,50.78
2022-11-07T11:12:47.251Z,50.58
2022-11-07T11:15:19.138Z,50.96
2022-11-07T11:17:46.546Z,50.73
2022-11-07T11:20:43.542Z,50.78
2022-11-07T11:23:37.017Z,50.70
2022-11-07T11:26:09.152Z,50.18
2022-11-07T11:28:46.168Z,50.69
2022-11-07T11:31:22.514Z,50.19
2022-11-07T11:33:53.716Z,50.21
2022-11-07T11:36:24.344Z,50.52
2022-11-07T11:38:57.281Z,50.40
2022-11-07T11:41:48.223Z,50.07
2022-11-07T11:44:35.939Z,49.92
2022-11-07T11:47:30.313Z,49.75
2022-11-07T11:50:03.536Z,49.89
2022-11-07T11:52:32.036Z,49.89
2022-11-07T11:55:00.458Z,49.26
2022-11-07T11:57:35.352Z,49.88
2022-11-07T12:00:15.533Z,49.78
2022-11-07T12:03:05.779Z,49.23
2022-11-07T12:06:03.714Z,49.26
2022-11-07T12:08:48.917Z,49.25
2022-11-07T12:11:34.446Z,49.61
2022-11-07T12:14:07.627Z,49.35
2022-11-07T12:16:38.532Z,49.23
2022-11-07T12:19:24.026Z,49.29
2022-11-07T12:22:28.064Z,49.14
2022-11-07T12:24:56.672Z,49.46
2022-11-07T12:27:32.267Z,49.51
2022-11-07T12:30:14.368Z,49.12
2022-11-07T12:32:53.111Z,48.86
2022-11-07T12:35:41.658Z,48.72
2022-11-07T12:38:49.830Z,49.21
2022-11-07T12:41:29.158Z,48.89
2022-11-07T12:43:55.959Z,49.06
2022-11-07T12:46:46.006Z,48.87
2022-11-07T12:49:49.902Z,48.88
2022-11-07T12:52:53.497Z,49.05
2022-11-07T12:55:26.021Z,48.82
2022-11-07T12:57:53.780Z,48.75
2022-11-07T13:00:29.590Z,49.03
2022-11-07T13:03:28.086Z,49.31
2022-11-07T13:06:15.229Z,48.85
2022-11-07T13:09:04.989Z,48.99
2022-11-07T13:11:50.137Z,49.27
2022-11-07T13:14:30.787Z,49.02
2022-11-07T13:17:17.429Z,49.02
2022-11-07T13:20:05.626Z,49.26
2022-11-07T13:22:40.525Z,49.39
2022-11-07T13:25:17.232Z,49.07
2022-11-07T13:28:25.810Z,49.63
2022-11-07T13:31:02.403Z,49.87
2022-11-07T13:33:33.780Z,49.88
2022-11-07T13:36:15.558Z,50.06
2022-11-07T13:38:50.251Z,49.53
2022-11-07T13:41:17.160Z,49.58
2022-11-07T13:43:55.595Z,49.57
2022-11-07T13:46:38.426Z,49.94
2022-11-07T13:49:18.594Z,49.56
2022-11-07T13:51:50.628Z,49.70
2022-11-07T13:54:34.773Z,49.61
2022-11-07T13:57:04.558Z,49.25
2022-11-07T13:59:54.222Z,49.47
2022-11-07T14:02:26.715Z,49.15
2022-11-07T14:05:16.303Z,49.43
2022-11-07T14:07:51.298Z,49.51
2022-11-07T14:10:21.198Z,49.57
2022-11-07T14:12:48.308Z,49.21
2022-11-07T14:15:16.727Z,49.70
2022-11-07T14:17:43.834Z,49.75
2022-11-07T14:20:16.883Z,49.53
2022-11-07T14:22:57.995Z,49.49
2022-11-07T14:25:27.094Z,50.10
2022-11-07T14:27:53.899Z,49.96
2022-11-07T14:30:21.902Z,49.82
2022-11-07T14:32:54.689Z,49.75
2022-11-07T14:35:25.733Z,49.87
2022-11-07T14:37:52.863Z,49.93
2022-11-07T14:40:19.873Z,50.07
2022-11-07T14:42:46.987Z,49.54
2022-11-07T14:45:23.817Z,49.51
2022-11-07T14:48:03.285Z,49.37
2022-11-07T14:50:30.039Z,49.36
2022-11-07T14:53:04.644Z,49.49
2022-11-07T14:55:38.492Z,49.58
2022-11-07T14:58:06.209Z,49.51
2022-11-07T15:00:33.878Z,49.37
2022-11-07T15:03:01.209Z,49.62
2022-11-07T15:05:44.162Z,49.66
2022-11-07T15:08:33.845Z,49.98
2022-11-07T15:11:00.552Z,49.78
2022-11-07T15:13:27.533Z,49.85
2022-11-07T15:16:13.093Z,49.70
2022-11-07T15:18:42.703Z,49.84
2022-11-07T15:21:28.830Z,50.04
2022-11-07T15:23:55.810Z,49.57
2022-11-07T15:26:25.385Z,49.85
2022-11-07T15:28:53.506Z,50.10
2022-11-07T15:31:21.418Z,50.18
2022-11-07T15:33:48.244Z,50.30
2022-11-07T15:36:15.798Z,50.03
2022-11-07T15:38:42.962Z,50.53
2022-11-07T15:41:11.434Z,50.60
2022-11-07T15:43:38.527Z,50.68
2022-11-07T15:46:25.087Z,50.91
2022-11-07T15:48:52.562Z,51.12
2022-11-07T15:51:19.199Z,51.18
2022-11-07T15:53:45.993Z,51.59
2022-11-07T15:56:15.733Z,51.92
2022-11-07T15:58:42.895Z,51.97
2022-11-07T16:01:09.960Z,52.02
2022-11-07T16:03:36.895Z,52.51
2022-11-07T16:06:13.914Z,52.57
2022-11-07T16:08:40.701Z,53.00
2022-11-07T16:11:11.610Z,53.38
2022-11-07T16:13:39.075Z,53.10
2022-11-07T16:16:06.889Z,53.30
2022-11-07T16:18:41.738Z,53.24
2022-11-07T16:21:08.542Z,53.27
2022-11-07T16:23:35.654Z,53.51
2022-11-07T16:26:02.607Z,53.38
2022-11-07T16:28:31.763Z,53.53
2022-11-07T16:30:58.691Z,53.88
2022-11-07T16:33:26.607Z,54.30
2022-11-07T16:35:55.162Z,54.28
2022-11-07T16:38:23.509Z,54.50
2022-11-07T16:40:50.365Z,54.84
2022-11-07T16:43:17.314Z,55.03
2022-11-07T16:45:49.383Z,55.01
2022-11-07T16:48:23.248Z,55.18
2022-11-07T16:50:50.287Z,54.83
2022-11-07T16:53:17.164Z,54.71
2022-11-07T16:55:50.778Z,54.82
2022-11-07T16:58:30.359Z,54.69
2022-11-07T17:00:59.807Z,54.98
2022-11-07T17:03:27.070Z,54.73
2022-11-07T17:05:54.938Z,54.87
2022-11-07T17:08:23.786Z,54.32
2022-11-07T17:10:51.064Z,54.74
2022-11-07T17:13:18.126Z,54.35
2022-11-07T17:15:44.892Z,54.39
2022-11-07T17:18:18.480Z,54.42
2022-11-07T17:20:52.802Z,54.35
2022-11-07T17:23:25.232Z,54.44
2022-11-07T17:25:55.685Z,54.34
2022-11-07T17:28:23.972Z,54.10
2022-11-07T17:30:50.743Z,53.96
2022-11-07T17:33:17.506Z,53.86
2022-11-07T17:35:44.773Z,53.91
2022-11-07T17:38:19.360Z,53.81
2022-11-07T17:40:46.848Z,53.62
2022-11-07T17:43:13.651Z,53.98
2022-11-07T17:45:40.562Z,53.59
2022-11-07T17:48:07.368Z,53.58
2022-11-07T17:50:34.230Z,53.75
2022-11-07T17:53:00.913Z,53.44
2022-11-07T17:55:28.060Z,53.68
2022-11-07T17:57:54.891Z,53.81
2022-11-07T18:00:24.220Z,53.69
2022-11-07T18:02:52.623Z,53.68
2022-11-07T18:05:21.230Z,53.49
2022-11-07T18:07:47.950Z,53.66
2022-11-07T18:10:16.008Z,53.50
2022-11-07T18:12:43.381Z,53.18
2022-11-07T18:15:12.808Z,53.07
2022-11-07T18:17:40.916Z,53.64
2022-11-07T18:20:10.067Z,53.11
2022-11-07T18:22:37.632Z,53.22
2022-11-07T18:25:08.246Z,53.13
2022-11-07T18:27:34.888Z,53.26
2022-11-07T18:30:03.017Z,53.20
2022-11-07T18:32:35.687Z,52.94
2022-11-07T18:35:04.680Z,53.33
2022-11-07T18:37:31.703Z,53.48
2022-11-07T18:39:58.540Z,53.32
2022-11-07T18:42:25.195Z,53.06
2022-11-07T18:44:52.174Z,52.93
2022-11-07T18:47:18.883Z,53.15
2022-11-07T18:49:45.655Z,53.06
2022-11-07T18:52:12.707Z,53.53
2022-11-07T18:54:39.477Z,53.05
2022-11-07T18:57:06.165Z,53.13
2022-11-07T18:59:32.999Z,53.06
2022-11-07T19:01:59.721Z,53.47
2022-11-07T19:04:26.603Z,53.44
2022-11-07T19:06:57.251Z,53.20
2022-11-07T19:09:29.923Z,53.33
2022-11-07T19:11:58.106Z,53.00
2022-11-07T19:14:25.439Z,53.08
2022-11-07T19:16:53.065Z,53.03
2022-11-07T19:19:19.990Z,53.10
2022-11-07T19:21:46.775Z,53.03
2022-11-07T19:24:21.490Z,53.14
2022-11-07T19:26:49.196Z,53.24
2022-11-07T19:29:16.725Z,53.06
2022-11-07T19:31:43.734Z,53.24
2022-11-07T19:34:10.646Z,53.36
2022-11-07T19:36:37.334Z,53.46
2022-11-07T19:39:05.756Z,53.12
2022-11-07T19:41:32.458Z,52.96
2022-11-07T19:44:01.839Z,53.18
2022-11-07T19:46:28.584Z,53.10
2022-11-07T19:48:56.211Z,53.31
2022-11-07T19:51:23.363Z,52.95
2022-11-07T19:53:55.646Z,53.18
2022-11-07T19:56:23.930Z,52.94
2022-11-07T19:58:50.698Z,52.87
2022-11-07T20:01:22.850Z,53.25
2022-11-07T20:03:51.143Z,52.89
2022-11-07T20:06:21.576Z,53.14
2022-11-07T20:08:48.418Z,52.67
2022-11-07T20:11:16.984Z,52.74
2022-11-07T20:13:43.816Z,52.63
2022-11-07T20:16:10.885Z,52.92
2022-11-07T20:18:38.201Z,52.99
2022-11-07T20:21:12.921Z,52.83
2022-11-07T20:23:40.850Z,52.86
2022-11-07T20:26:10.030Z,52.54
2022-11-07T20:28:37.239Z,52.94
2022-11-07T20:31:11.557Z,52.52
2022-11-07T20:33:38.302Z,52.40
2022-11-07T20:36:08.022Z,52.44
2022-11-07T20:38:35.607Z,52.69
2022-11-07T20:41:03.770Z,52.32
2022-11-07T20:43:31.442Z,52.54
2022-11-07T20:46:13.122Z,52.18
2022-11-07T20:48:39.915Z,51.98
2022-11-07T20:51:18.415Z,52.36
2022-11-07T20:53:49.844Z,52.29
2022-11-07T20:56:17.976Z,52.34
2022-11-07T20:58:45.185Z,51.92
2022-11-07T21:01:14.682Z,52.26
2022-11-07T21:03:41.926Z,51.79
2022-11-07T21:06:11.511Z,51.72
2022-11-07T21:08:43.302Z,51.68
2022-11-07T21:11:11.294Z,51.77
2022-11-07T21:13:38.093Z,51.60
2022-11-07T21:16:05.575Z,51.36
2022-11-07T21:18:32.605Z,51.81
2022-11-07T21:21:10.307Z,51.50
2022-11-07T21:23:37.684Z,51.32
2022-11-07T21:26:14.378Z,51.44
2022-11-07T21:28:41.193Z,51.23
2022-11-07T21:31:11.350Z,51.24
2022-11-07T21:33:38.936Z,51.24
2022-11-07T21:36:10.671Z,51.41
2022-11-07T21:38:37.803Z,51.29
2022-11-07T21:41:14.230Z,50.99
2022-11-07T21:43:41.183Z,50.78
2022-11-07T21:46:23.195Z,51.18
2022-11-07T21:48:50.721Z,50.63
2022-11-07T21:51:19.600Z,51.00
2022-11-07T21:53:47.157Z,51.00
2022-11-07T21:56:27.197Z,50.65
2022-11-07T21:58:56.780Z,50.64
2022-11-07T22:01:24.077Z,50.44
2022-11-07T22:04:06.871Z,50.78
2022-11-07T22:06:37.117Z,50.66
2022-11-07T22:09:04.544Z,50.32
2022-11-07T22:11:31.365Z,50.68
2022-11-07T22:13:58.462Z,50.26
2022-11-07T22:16:25.332Z,50.55
2022-11-07T22:18:52.186Z,50.28
2022-11-07T22:21:21.457Z,50.20
2022-11-07T22:23:48.787Z,50.45
2022-11-07T22:26:21.399Z,50.18
2022-11-07T22:28:49.213Z,50.41
2022-11-07T22:31:22.430Z,50.43
2022-11-07T22:33:50.060Z,50.30
2022-11-07T22:36:17.519Z,50.46
2022-11-07T22:38:44.389Z,49.92
2022-11-07T22:41:14.458Z,50.04
2022-11-07T22:43:41.609Z,50.08
2022-11-07T22:46:11.880Z,50.09
2022-11-07T22:48:38.623Z,49.95
2022-11-07T22:51:16.474Z,49.92
2022-11-07T22:53:43.295Z,50.08
2022-11-07T22:56:11.276Z,49.68
2022-11-07T22:58:38.427Z,49.79
2022-11-07T23:01:06.604Z,50.07
2022-11-07T23:03:33.498Z,49.97
2022-11-07T23:06:04.664Z,49.77
2022-11-07T23:08:35.250Z,49.51
2022-11-07T23:13:53.489Z,49.62
2022-11-07T23:16:27.434Z,49.98
2022-11-07T23:18:58.270Z,49.67
2022-11-07T23:21:26.551Z,49.73
2022-11-07T23:23:54.733Z,50.11
2022-11-07T23:26:21.575Z,49.76
2022-11-07T23:28:49.799Z,50.06
2022-11-07T23:31:17.826Z,49.74
2022-11-07T23:33:44.786Z,49.99
2022-11-07T23:36:14.218Z,50.20
2022-11-07T23:38:41.897Z,50.08
2022-11-07T23:41:10.078Z,50.20
2022-11-07T23:43:36.759Z,50.22
2022-11-07T23:46:21.999Z,50.24
2022-11-07T23:49:11.908Z,49.83
2022-11-07T23:51:41.094Z,49.87
2022-11-07T23:54:26.285Z,50.03
2022-11-07T23:56:53.063Z,50.41
2022-11-07T23:59:38.272Z,50.04
